Time;durP1;ratioP1;P1;durP2;ratioP2;P2;SDS_P1;SDS_P2;PMS_P1;PMS_P2;Temp;Humidity;BMP_temperature;BMP_pressure;BME280_temperature;BME280_humidity;BME280_pressure;Samples;Min_cycle;Max_cycle;Signal;HPM_P1;HPM_P2
2021/04/14 00:02:21;;;;;;;10.10;5.22;;;;;;;1.52;74.81;101774.25;4997420;28;20125;-73
2021/04/14 00:04:48;;;;;;;8.48;5.20;;;;;;;1.57;74.47;101776.03;5000973;28;20069;-72
2021/04/14 00:07:15;;;;;;;7.07;5.57;;;;;;;1.55;74.68;101762.00;5015770;28;20057;-73
2021/04/14 00:09:43;;;;;;;10.40;5.95;;;;;;;1.60;74.29;101768.16;5017146;28;20176;-73
2021/04/14 00:12:11;;;;;;;11.10;7.43;;;;;;;1.69;74.12;101763.78;5017007;28;20050;-73
2021/04/14 00:14:38;;;;;;;8.60;6.60;;;;;;;1.69;74.10;101769.91;5016959;28;20418;-74
2021/04/14 00:17:05;;;;;;;11.18;7.03;;;;;;;1.79;73.06;101762.91;5017006;28;20376;-74
2021/04/14 00:19:32;;;;;;;10.70;7.10;;;;;;;1.77;73.25;101764.66;5016969;28;20073;-72
2021/04/14 00:21:59;;;;;;;10.43;7.55;;;;;;;1.75;73.38;101764.66;5016892;28;20100;-73
2021/04/14 00:24:25;;;;;;;14.63;9.05;;;;;;;1.85;73.46;101765.53;5016471;28;20069;-70
2021/04/14 00:26:52;;;;;;;14.75;9.20;;;;;;;1.80;73.33;101751.47;5015561;28;20072;-71
2021/04/14 00:29:18;;;;;;;13.35;10.65;;;;;;;1.83;73.71;101761.16;5016695;28;20104;-72
2021/04/14 00:31:44;;;;;;;23.60;11.98;;;;;;;1.79;73.46;101748.88;5016372;28;20088;-70
2021/04/14 00:34:14;;;;;;;22.40;13.13;;;;;;;1.84;73.81;101758.53;5016503;28;20169;-70
2021/04/14 00:36:44;;;;;;;19.52;13.52;;;;;;;1.86;73.81;101743.59;5016605;28;20383;-73
2021/04/14 00:39:15;;;;;;;20.10;13.52;;;;;;;1.93;74.03;101752.41;5016794;28;20050;-71
2021/04/14 00:41:43;;;;;;;20.67;13.63;;;;;;;2.05;72.91;101758.56;5015364;28;20042;-72
2021/04/14 00:44:09;;;;;;;16.23;13.70;;;;;;;2.02;73.02;101751.53;5016089;28;20054;-69
2021/04/14 00:46:36;;;;;;;17.40;14.07;;;;;;;2.07;72.63;101759.41;5016105;28;20123;-72
2021/04/14 00:49:04;;;;;;;19.65;12.82;;;;;;;1.96;73.20;101747.13;5016214;28;20081;-70
2021/04/14 00:51:31;;;;;;;19.98;13.07;;;;;;;2.00;73.08;101751.50;5014219;28;20431;-71
2021/04/14 00:53:57;;;;;;;20.42;14.02;;;;;;;1.92;73.74;101740.09;5016267;28;20057;-71
2021/04/14 00:56:23;;;;;;;21.38;13.88;;;;;;;2.05;73.79;101759.41;5016218;28;20050;-73
2021/04/14 00:58:50;;;;;;;17.50;13.68;;;;;;;2.05;74.07;101745.38;5031272;28;20065;-72
2021/04/14 01:01:16;;;;;;;20.65;9.77;;;;;;;2.08;72.78;101745.38;5015061;28;20129;-71
2021/04/14 01:03:42;;;;;;;17.83;11.23;;;;;;;2.03;73.75;101748.88;5014975;28;20107;-72
2021/04/14 01:06:18;;;;;;;22.30;10.18;;;;;;;2.01;73.36;101753.28;5011606;28;20046;-73
2021/04/14 01:08:45;;;;;;;15.68;10.35;;;;;;;1.97;74.23;101740.97;4996128;28;20058;-71
2021/04/14 01:11:12;;;;;;;13.13;10.55;;;;;;;1.93;75.15;101735.69;4996107;28;20085;-71
2021/04/14 01:13:41;;;;;;;14.02;9.10;;;;;;;1.96;75.07;101736.56;4996246;28;20333;-74
2021/04/14 01:16:07;;;;;;;12.07;8.32;;;;;;;1.92;75.04;101734.84;4995009;28;20049;-72
2021/04/14 01:18:36;;;;;;;14.70;8.02;;;;;;;1.74;74.97;101714.66;4994898;28;20054;-72
2021/04/14 01:21:19;;;;;;;17.38;8.45;;;;;;;1.87;75.22;101741.84;4996112;28;20054;-69
2021/04/14 01:23:45;;;;;;;12.85;7.35;;;;;;;1.80;74.90;101745.34;4996357;28;20076;-70
2021/04/14 01:26:12;;;;;;;13.65;7.40;;;;;;;1.84;74.05;101740.09;4994865;28;20054;-71
2021/04/14 01:28:41;;;;;;;12.07;7.05;;;;;;;1.82;74.74;101733.06;4996069;28;20070;-73
2021/04/14 01:31:09;;;;;;;13.98;7.20;;;;;;;1.77;75.02;101735.69;4995788;28;20470;-71
2021/04/14 01:33:36;;;;;;;14.57;7.35;;;;;;;1.70;75.62;101745.31;4995921;28;20058;-69
2021/04/14 01:36:07;;;;;;;15.50;7.75;;;;;;;1.73;75.88;101740.09;4996091;28;20058;-70
2021/04/14 01:38:34;;;;;;;;;;;;;;;1.63;75.41;101741.81;4995395;28;20061;-69
2021/04/14 01:41:05;;;;;;;15.68;7.75;;;;;;;1.60;75.28;101749.72;4995476;28;19936;-69
2021/04/14 01:43:32;;;;;;;9.68;6.97;;;;;;;1.63;75.34;101748.81;4996177;28;20061;-70
2021/04/14 01:45:59;;;;;;;11.07;7.05;;;;;;;1.55;75.48;101747.94;4995634;28;20405;-73
2021/04/14 01:48:28;;;;;;;11.38;6.75;;;;;;;1.41;75.21;101733.00;5011019;28;20066;-72
2021/04/14 01:50:54;;;;;;;14.65;7.50;;;;;;;1.32;76.00;101725.94;5010994;28;20050;-73
2021/04/14 01:53:21;;;;;;;13.40;7.10;;;;;;;1.35;75.46;101738.25;4995419;28;20395;-72
2021/04/14 01:55:51;;;;;;;19.20;8.10;;;;;;;1.44;75.52;101740.03;4995671;28;20109;-73
2021/04/14 01:58:19;;;;;;;11.68;6.88;;;;;;;1.33;76.32;101740.88;4995618;28;20058;-71
2021/04/14 02:00:51;;;;;;;12.25;6.40;;;;;;;1.32;76.66;101744.38;4994672;28;20109;-70
2021/04/14 02:03:19;;;;;;;13.48;7.05;;;;;;;1.14;76.99;101728.53;4998470;28;20074;-70
2021/04/14 02:05:46;;;;;;;9.88;6.20;;;;;;;1.15;77.32;101741.69;5006647;28;20333;-70
2021/04/14 02:08:12;;;;;;;12.23;6.82;;;;;;;1.06;76.84;101734.66;4999423;28;20356;-70
2021/04/14 02:10:42;;;;;;;10.13;6.43;;;;;;;0.99;77.95;101731.97;4998521;28;20049;-70
2021/04/14 02:13:17;;;;;;;15.57;7.72;;;;;;;0.94;77.05;101735.47;4999694;28;20065;-70
2021/04/14 02:15:44;;;;;;;11.65;6.63;;;;;;;1.00;77.13;101736.38;4999310;28;20428;-71
2021/04/14 02:18:10;;;;;;;14.30;6.90;;;;;;;0.99;76.74;101737.25;4999473;28;20061;-72
2021/04/14 02:20:37;;;;;;;9.48;6.50;;;;;;;0.85;77.88;101740.69;4999184;28;20042;-69
2021/04/14 02:23:30;;;;;;;17.20;7.63;;;;;;;0.88;77.74;101740.69;4999529;28;20108;-72
2021/04/14 02:25:57;;;;;;;15.25;9.35;;;;;;;0.87;77.13;101740.69;4999153;28;20459;-72
2021/04/14 02:28:24;;;;;;;13.43;8.30;;;;;;;0.81;77.50;101745.06;4999348;28;20104;-73
2021/04/14 02:30:51;;;;;;;14.80;9.10;;;;;;;0.80;77.53;101738.03;4998979;28;20058;-72
2021/04/14 02:33:18;;;;;;;17.30;9.75;;;;;;;0.73;77.62;101736.25;4998257;28;20058;-71
2021/04/14 02:35:45;;;;;;;15.48;10.88;;;;;;;0.69;77.43;101721.31;4998897;28;20380;-72
2021/04/14 02:38:12;;;;;;;17.27;10.27;;;;;;;0.66;77.80;101734.47;4999031;28;20120;-72
2021/04/14 02:40:38;;;;;;;14.90;10.68;;;;;;;0.67;77.73;101734.44;4999011;28;20046;-72
2021/04/14 02:43:04;;;;;;;18.00;9.80;;;;;;;0.62;78.04;101730.94;4999257;28;20105;-70
2021/04/14 02:45:35;;;;;;;16.80;10.43;;;;;;;0.60;77.57;101727.41;4998787;28;20050;-69
2021/04/14 02:48:02;;;;;;;24.10;10.52;;;;;;;0.49;77.59;101735.22;4998945;28;20058;-71
2021/04/14 02:50:28;;;;;;;14.57;10.32;;;;;;;0.45;77.64;101717.69;4997702;28;20081;-74
2021/04/14 02:52:55;;;;;;;15.70;9.50;;;;;;;0.47;77.86;101723.84;4998085;28;20129;-72
2021/04/14 02:55:24;;;;;;;15.40;9.18;;;;;;;0.49;77.87;101729.97;4997573;28;20058;-70
2021/04/14 02:57:50;;;;;;;12.48;8.35;;;;;;;0.52;77.04;101739.63;4998645;28;20067;-70
2021/04/14 03:00:19;;;;;;;14.82;7.95;;;;;;;0.49;76.89;101731.75;4998776;28;20058;-72
2021/04/14 03:02:45;;;;;;;13.95;7.10;;;;;;;0.48;77.50;101730.84;4998577;28;20112;-72
2021/04/14 03:05:14;;;;;;;11.32;6.13;;;;;;;0.44;77.95;101725.56;5005439;28;20054;-71
2021/04/14 03:07:42;;;;;;;10.98;5.38;;;;;;;0.32;77.84;101706.22;5016662;28;20138;-70
2021/04/14 03:10:11;;;;;;;14.38;6.03;;;;;;;0.34;78.40;101719.38;5018330;28;20050;-71
2021/04/14 03:12:40;;;;;;;10.60;4.88;;;;;;;0.34;78.63;101724.63;5018333;28;20096;-71
2021/04/14 03:15:09;;;;;;;7.90;4.35;;;;;;;0.25;78.63;101715.81;5017280;28;20108;-69
2021/04/14 03:17:35;;;;;;;9.55;4.95;;;;;;;0.15;78.94;101707.88;5017850;28;20049;-72
2021/04/14 03:20:04;;;;;;;11.25;6.25;;;;;;;0.26;78.71;101711.44;5018158;28;20076;-70
2021/04/14 03:22:31;;;;;;;12.73;4.43;;;;;;;0.26;78.37;101716.69;5017731;28;20383;-70
2021/04/14 03:24:57;;;;;;;11.40;4.38;;;;;;;0.15;78.22;101700.84;5017905;28;20058;-72
2021/04/14 03:27:23;;;;;;;8.00;4.35;;;;;;;0.18;78.52;101715.75;5016869;28;20049;-73
2021/04/14 03:29:49;;;;;;;8.98;4.57;;;;;;;0.16;78.34;101709.63;5016702;28;20072;-73
2021/04/14 03:32:15;;;;;;;8.00;3.90;;;;;;;0.18;78.44;101707.88;5016504;28;20050;-71
2021/04/14 03:34:42;;;;;;;11.93;4.85;;;;;;;0.16;78.69;101702.59;5020507;28;20117;-72
2021/04/14 03:37:08;;;;;;;8.65;4.40;;;;;;;0.16;78.99;101712.25;5020085;28;20046;-71
2021/04/14 03:39:34;;;;;;;17.40;5.35;;;;;;;-0.16;79.52;101661.25;5021127;28;20096;-70
2021/04/14 03:42:00;;;;;;;11.07;5.00;;;;;;;0.04;79.34;101702.53;5021219;28;20053;-70
2021/04/14 03:44:32;;;;;;;12.65;5.18;;;;;;;0.03;80.06;101709.53;5017171;28;20058;-71
2021/04/14 03:47:00;;;;;;;9.07;4.78;;;;;;;0.05;80.03;101704.28;5017767;28;20058;-71
2021/04/14 03:49:26;;;;;;;13.43;4.50;;;;;;;-0.01;80.01;101706.00;5017645;28;20100;-71
2021/04/14 03:51:53;;;;;;;9.25;4.38;;;;;;;-0.03;79.78;101698.97;5018625;28;20065;-71
2021/04/14 03:54:19;;;;;;;7.60;4.78;;;;;;;-0.02;79.82;101703.34;5020258;28;20049;-71
2021/04/14 03:57:04;;;;;;;7.15;4.13;;;;;;;-0.02;80.26;101705.97;5018272;28;20458;-71
2021/04/14 03:59:30;;;;;;;9.13;3.97;;;;;;;-0.06;80.02;101694.56;5018016;28;20058;-71
2021/04/14 04:01:56;;;;;;;12.80;4.63;;;;;;;-0.04;79.20;101697.22;5017048;28;20046;-73
2021/04/14 04:04:22;;;;;;;7.38;4.57;;;;;;;0.11;78.35;101701.72;5016050;28;20810;-72
2021/04/14 04:06:49;;;;;;;9.10;4.53;;;;;;;0.13;78.19;101692.09;5017054;28;20372;-71
2021/04/14 04:09:16;;;;;;;13.23;4.47;;;;;;;0.12;78.39;101685.94;5016976;28;20066;-73
2021/04/14 04:11:42;;;;;;;10.68;4.78;;;;;;;0.17;78.48;101701.75;5016782;28;20391;-70
2021/04/14 04:14:08;;;;;;;9.10;4.97;;;;;;;0.09;79.28;101698.19;5016155;28;20053;-70
2021/04/14 04:16:34;;;;;;;11.57;5.47;;;;;;;0.12;79.40;101696.44;5017103;28;20115;-72
2021/04/14 04:19:01;;;;;;;9.05;4.60;;;;;;;0.10;79.89;101695.56;5017019;28;20060;-71
2021/04/14 04:21:27;;;;;;;12.63;4.88;;;;;;;0.06;80.25;101693.78;5016997;28;20046;-71
2021/04/14 04:23:54;;;;;;;10.13;5.20;;;;;;;0.06;79.94;101693.78;5016602;28;20478;-72
2021/04/14 04:26:20;;;;;;;11.02;4.63;;;;;;;0.03;79.80;101691.16;5016489;28;20062;-70
2021/04/14 04:28:46;;;;;;;12.80;5.00;;;;;;;0.08;79.42;101689.44;5016515;28;20427;-72
2021/04/14 04:31:13;;;;;;;8.73;4.22;;;;;;;0.12;79.54;101690.34;5015575;28;20054;-71
2021/04/14 04:33:40;;;;;;;10.82;5.15;;;;;;;0.04;80.37;101695.53;5016420;28;20436;-72
2021/04/14 04:36:06;;;;;;;11.77;4.57;;;;;;;0.03;80.44;101687.63;5016731;28;20050;-74
2021/04/14 04:38:34;;;;;;;8.50;4.70;;;;;;;0.07;79.83;101689.41;5015353;28;20053;-73
2021/04/14 04:41:02;;;;;;;10.35;4.53;;;;;;;0.06;79.84;101683.28;5016220;28;20057;-73
2021/04/14 04:43:29;;;;;;;12.60;5.15;;;;;;;0.11;80.08;101684.19;5016054;28;20432;-73
2021/04/14 04:45:56;;;;;;;9.55;4.50;;;;;;;0.12;79.88;101683.31;5016175;28;20104;-73
2021/04/14 04:48:23;;;;;;;10.90;4.63;;;;;;;0.09;80.09;101682.44;5016158;28;20045;-72
2021/04/14 04:50:49;;;;;;;10.88;4.80;;;;;;;0.25;79.12;101699.16;5016421;28;20042;-70
2021/04/14 04:53:19;;;;;;;13.90;5.00;;;;;;;0.25;80.12;101693.91;5015916;28;20057;-74
2021/04/14 04:55:46;;;;;;;13.00;5.45;;;;;;;0.32;79.45;101685.22;5016271;28;20053;-70
2021/04/14 04:58:13;;;;;;;9.98;4.88;;;;;;;0.34;79.98;101696.63;5015192;28;20054;-70
2021/04/14 05:00:39;;;;;;;8.32;4.15;;;;;;;0.43;79.49;101697.53;5015793;28;20061;-70
2021/04/14 05:03:06;;;;;;;13.40;4.70;;;;;;;0.41;79.30;101697.53;5016033;28;20045;-73
2021/04/14 05:05:36;;;;;;;9.10;5.03;;;;;;;0.44;79.32;101709.81;5015652;28;20534;-74
2021/04/14 05:08:03;;;;;;;11.63;4.38;;;;;;;0.41;79.75;101700.16;5015502;28;20525;-72
2021/04/14 05:10:32;;;;;;;11.75;4.72;;;;;;;0.43;79.81;101713.31;5016066;28;20112;-70
2021/04/14 05:12:59;;;;;;;13.13;4.53;;;;;;;0.42;79.53;101699.28;5016024;28;20084;-71
2021/04/14 05:15:29;;;;;;;14.60;4.97;;;;;;;0.52;79.64;101714.25;5015918;28;20416;-70
2021/04/14 05:17:56;;;;;;;8.18;5.00;;;;;;;0.46;80.02;101687.03;5015973;28;20104;-71
2021/04/14 05:20:23;;;;;;;11.75;4.75;;;;;;;0.65;79.54;101720.44;5016518;28;20581;-69
2021/04/14 05:22:49;;;;;;;11.65;5.28;;;;;;;0.63;80.11;101722.19;5015761;28;20436;-73
2021/04/14 05:25:20;;;;;;;10.00;5.40;;;;;;;0.69;79.98;101717.84;5015428;28;20482;-71
2021/04/14 05:27:47;;;;;;;11.50;5.10;;;;;;;0.74;79.80;101716.09;5017049;28;20436;-73
2021/04/14 05:30:14;;;;;;;13.18;5.05;;;;;;;0.77;79.49;101716.97;5015946;28;20339;-71
2021/04/14 05:32:41;;;;;;;9.27;4.57;;;;;;;0.77;78.63;101714.34;5015403;28;20431;-73
2021/04/14 05:35:09;;;;;;;11.15;4.63;;;;;;;0.80;78.74;101702.97;5014512;28;20057;-72
2021/04/14 05:37:35;;;;;;;14.57;5.68;;;;;;;0.83;79.42;101720.50;5014008;28;20057;-74
2021/04/14 05:40:01;;;;;;;8.85;4.32;;;;;;;0.89;78.81;101725.81;5009587;28;20094;-74
2021/04/14 05:42:27;;;;;;;11.70;5.05;;;;;;;0.83;79.67;101721.41;4998330;28;20046;-74
2021/04/14 05:44:54;;;;;;;11.80;5.35;;;;;;;0.83;79.96;101716.16;4995618;28;20502;-74
2021/04/14 05:47:20;;;;;;;12.35;5.30;;;;;;;0.81;79.56;101704.72;4995798;28;20050;-73
2021/04/14 05:49:46;;;;;;;18.50;5.57;;;;;;;0.91;79.31;101726.69;4995463;28;20134;-72
2021/04/14 05:52:13;;;;;;;6.82;5.15;;;;;;;1.00;79.88;101736.38;4995877;28;20051;-73
2021/04/14 05:54:39;;;;;;;9.30;4.97;;;;;;;1.01;79.79;101733.75;4994537;28;20046;-71
2021/04/14 05:57:05;;;;;;;7.78;4.25;;;;;;;1.02;79.74;101738.13;4995964;28;20046;-74
2021/04/14 05:59:31;;;;;;;13.15;5.00;;;;;;;1.05;79.91;101729.38;4995503;28;20444;-73
2021/04/14 06:01:57;;;;;;;14.40;5.38;;;;;;;1.12;79.88;101732.91;4995751;28;20047;-72
2021/04/14 06:04:24;;;;;;;14.18;5.35;;;;;;;1.13;79.78;101732.06;4997890;28;20361;-72
2021/04/14 06:06:50;;;;;;;7.28;4.93;;;;;;;1.12;80.23;101727.63;5014122;28;20495;-73
2021/04/14 06:09:17;;;;;;;11.18;5.63;;;;;;;1.13;79.79;101737.31;5014926;28;20058;-72
2021/04/14 06:11:43;;;;;;;7.10;4.85;;;;;;;1.13;79.49;101732.91;5014917;28;20697;-71
2021/04/14 06:14:09;;;;;;;14.95;4.93;;;;;;;1.20;79.40;101733.81;5015148;28;20063;-74
2021/04/14 06:16:35;;;;;;;9.48;4.63;;;;;;;1.24;79.02;101732.09;4997744;28;20049;-74
2021/04/14 06:19:04;;;;;;;12.05;4.82;;;;;;;1.42;78.14;101736.53;5013792;28;20057;-72
2021/04/14 06:21:30;;;;;;;10.60;4.63;;;;;;;1.50;77.25;101732.16;5014437;28;20626;-72
2021/04/14 06:24:01;;;;;;;6.28;3.03;;;;;;;1.72;75.01;101732.19;5014534;28;20057;-72
2021/04/14 06:26:52;;;;;;;12.05;4.80;;;;;;;1.77;73.73;101714.63;5014698;28;20077;-74
2021/04/14 06:29:20;;;;;;;10.13;3.75;;;;;;;2.05;72.27;101724.31;5015027;28;20329;-74
2021/04/14 06:31:46;;;;;;;11.32;3.88;;;;;;;2.16;71.50;101730.44;5014030;28;20050;-74
2021/04/14 06:34:18;;;;;;;7.47;3.65;;;;;;;2.26;70.22;101732.19;5014357;28;20359;-70
2021/04/14 06:36:50;;;;;;;9.02;3.80;;;;;;;2.34;70.12;101731.31;5013335;28;20045;-71
2021/04/14 06:39:18;;;;;;;13.23;3.75;;;;;;;2.46;69.50;101733.03;5012147;28;20060;-74
2021/04/14 06:42:18;;;;;;;6.55;3.17;;;;;;;2.45;70.45;101732.16;5011982;28;20058;-74
2021/04/14 06:45:10;;;;;;;10.98;4.00;;;;;;;2.49;70.59;101733.03;5023050;28;20054;-72
2021/04/14 06:47:55;;;;;;;8.90;3.70;;;;;;;2.56;71.08;101724.25;5024489;28;20053;-76
2021/04/14 06:50:37;;;;;;;10.27;3.83;;;;;;;2.72;70.74;101727.69;5016534;28;20072;-71
2021/04/14 06:53:18;;;;;;;8.05;3.90;;;;;;;2.87;70.51;101715.38;5018641;28;20104;-73
2021/04/14 06:55:56;;;;;;;13.73;4.80;;;;;;;2.98;70.83;101716.19;5018147;28;20431;-72
2021/04/14 06:58:33;;;;;;;9.85;4.35;;;;;;;3.20;69.96;101718.72;5018359;28;20057;-72
2021/04/14 07:01:16;;;;;;;15.15;3.75;;;;;;;3.33;68.62;101714.25;5018121;28;20061;-75
2021/04/14 07:04:03;;;;;;;10.02;4.80;;;;;;;3.44;68.81;101719.47;5018095;28;20057;-74
2021/04/14 07:06:33;;;;;;;8.40;4.18;;;;;;;3.56;68.51;101716.75;5016812;28;20054;-73
2021/04/14 07:09:12;;;;;;;8.75;4.57;;;;;;;3.70;67.22;101723.72;5016802;28;20058;-71
2021/04/14 07:11:39;;;;;;;10.70;4.40;;;;;;;3.81;66.88;101713.94;5016617;28;20435;-71
2021/04/14 07:14:06;;;;;;;12.90;4.93;;;;;;;4.05;65.10;101709.34;5018079;28;20180;-74
2021/04/14 07:16:53;;;;;;;7.70;4.47;;;;;;;4.12;65.17;101715.44;5018214;28;20088;-73
2021/04/14 07:19:36;;;;;;;10.85;4.65;;;;;;;4.15;65.24;101726.84;5017904;28;20128;-72
2021/04/14 07:22:19;;;;;;;11.13;4.97;;;;;;;4.30;64.05;101717.06;5017693;28;20056;-74
2021/04/14 07:24:53;;;;;;;12.57;4.45;;;;;;;4.42;63.60;101714.28;5016632;28;20448;-73
2021/04/14 07:27:32;;;;;;;15.10;4.43;;;;;;;4.54;63.11;101715.03;5000374;28;20064;-72
2021/04/14 07:30:13;;;;;;;6.53;4.18;;;;;;;4.59;62.06;101711.44;5017744;28;20061;-71
2021/04/14 07:32:53;;;;;;;12.32;4.30;;;;;;;4.67;60.71;101711.38;5017660;28;20450;-72
2021/04/14 07:35:47;;;;;;;7.03;3.72;;;;;;;4.75;59.60;101717.44;5017635;28;20132;-72
2021/04/14 07:38:33;;;;;;;9.02;4.15;;;;;;;4.90;59.61;101715.50;5017803;28;20053;-73
2021/04/14 07:40:59;;;;;;;10.63;4.13;;;;;;;4.88;60.19;101717.31;5017159;28;20054;-73
2021/04/14 07:43:43;;;;;;;7.35;3.67;;;;;;;4.90;60.42;101710.22;5026003;28;20103;-74
2021/04/14 07:46:14;;;;;;;10.27;4.13;;;;;;;4.73;60.08;101691.91;5018101;28;20057;-71
2021/04/14 07:48:43;;;;;;;8.10;3.70;;;;;;;4.89;59.71;101719.06;5017544;28;20447;-72
2021/04/14 07:51:14;;;;;;;8.38;4.30;;;;;;;5.09;58.18;101716.16;5016165;28;20443;-73
2021/04/14 07:53:54;;;;;;;11.25;4.20;;;;;;;5.15;58.79;101720.50;5016632;28;20112;-73
2021/04/14 07:56:21;;;;;;;11.93;3.75;;;;;;;5.14;57.98;101716.09;5017326;28;20053;-72
2021/04/14 07:58:51;;;;;;;8.18;3.60;;;;;;;5.33;58.15;101716.72;5017155;28;20061;-73
2021/04/14 08:01:24;;;;;;;9.32;3.95;;;;;;;5.49;58.25;101724.47;5016735;28;20050;-73
2021/04/14 08:03:52;;;;;;;9.25;3.90;;;;;;;5.74;54.77;101718.78;5015898;28;20061;-73
2021/04/14 08:06:27;;;;;;;9.07;3.92;;;;;;;5.79;53.65;101727.53;5017066;28;20133;-69
2021/04/14 08:08:54;;;;;;;9.55;4.28;;;;;;;5.85;53.52;101719.50;5015850;28;20058;-71
2021/04/14 08:11:33;;;;;;;7.22;3.65;;;;;;;5.92;54.14;101713.19;5016921;28;20054;-71
2021/04/14 08:14:37;;;;;;;8.68;3.88;;;;;;;5.98;52.28;101713.09;5017022;28;20050;-71
2021/04/14 08:17:24;;;;;;;7.03;3.97;;;;;;;5.87;51.17;101691.19;5013876;28;20096;-69
2021/04/14 08:20:02;;;;;;;9.55;4.25;;;;;;;6.15;49.61;101714.59;5017303;28;20069;-72
2021/04/14 08:22:31;;;;;;;9.60;4.57;;;;;;;6.14;46.99;101719.94;5016624;28;20502;-72
2021/04/14 08:25:02;;;;;;;9.07;5.35;;;;;;;6.08;46.08;101703.25;5017424;28;20049;-72
2021/04/14 08:27:34;;;;;;;17.10;5.60;;;;;;;6.13;48.14;101715.53;5017113;28;20057;-70
2021/04/14 08:30:08;;;;;;;9.85;5.32;;;;;;;6.17;46.36;101712.81;5019438;28;20073;-69
2021/04/14 08:32:45;;;;;;;10.52;5.00;;;;;;;6.18;46.06;101713.69;5020552;28;20045;-69
2021/04/14 08:35:34;;;;;;;9.38;5.57;;;;;;;6.00;46.50;101706.88;5003248;28;20061;-72
2021/04/14 08:38:20;;;;;;;10.57;5.35;;;;;;;5.89;46.92;101707.94;5019890;28;20057;-70
2021/04/14 08:41:03;;;;;;;9.70;5.57;;;;;;;5.70;46.80;101700.28;5020824;28;20076;-72
2021/04/14 08:43:43;;;;;;;12.32;4.82;;;;;;;5.67;48.78;101710.06;5017058;28;20074;-72
2021/04/14 08:46:33;;;;;;;10.25;4.25;;;;;;;5.60;49.79;101711.06;5016604;28;20451;-72
2021/04/14 08:49:04;;;;;;;14.53;5.27;;;;;;;5.56;50.13;101704.94;5016624;28;20050;-73
2021/04/14 08:51:36;;;;;;;;;;;;;;;5.46;49.49;101709.50;5017285;28;20046;-68
2021/04/14 08:54:04;;;;;;;9.40;5.28;;;;;;;5.42;50.95;101703.38;5016376;28;19948;-68
2021/04/14 08:56:30;;;;;;;7.43;4.57;;;;;;;5.43;50.27;101709.53;5016549;28;20054;-73
2021/04/14 08:58:57;;;;;;;11.85;6.05;;;;;;;5.49;50.11;101714.72;5017001;28;20133;-70
2021/04/14 09:01:25;;;;;;;10.63;5.75;;;;;;;5.52;47.92;101714.69;5015293;28;20053;-70
2021/04/14 09:03:54;;;;;;;11.10;5.78;;;;;;;5.48;48.42;101713.00;5015658;28;20054;-69
2021/04/14 09:06:21;;;;;;;11.57;6.45;;;;;;;5.46;46.35;101698.91;5011793;28;20141;-70
2021/04/14 09:08:49;;;;;;;13.15;7.30;;;;;;;5.65;46.41;101711.84;4996916;28;20460;-72
2021/04/14 09:11:23;;;;;;;12.80;6.75;;;;;;;5.79;45.83;101707.22;4995253;28;20086;-73
2021/04/14 09:14:09;;;;;;;12.52;6.30;;;;;;;5.87;45.91;101714.19;4995843;28;20060;-72
2021/04/14 09:16:54;;;;;;;14.15;6.97;;;;;;;5.66;45.79;101669.44;4995917;28;20089;-71
2021/04/14 09:19:20;;;;;;;13.40;6.55;;;;;;;6.02;45.33;101707.72;4995107;28;20361;-71
2021/04/14 09:21:51;;;;;;;14.32;6.78;;;;;;;6.10;44.58;101700.56;4995831;28;20054;-72
2021/04/14 09:24:29;;;;;;;13.80;6.70;;;;;;;6.09;43.74;101701.44;4996100;28;20396;-75
2021/04/14 09:26:58;;;;;;;11.40;6.82;;;;;;;6.29;45.01;101705.53;4995807;28;20280;-72
2021/04/14 09:29:43;;;;;;;11.88;6.65;;;;;;;6.36;45.54;101709.81;4996080;28;20054;-72
2021/04/14 09:32:14;;;;;;;13.88;6.45;;;;;;;6.37;49.09;101709.78;5010869;28;20046;-70
2021/04/14 09:34:48;;;;;;;;;;;;;;;6.52;49.62;101713.06;4995649;28;20051;-69
2021/04/14 09:37:16;;;;;;;11.18;6.28;;;;;;;6.47;50.03;101713.16;4995640;28;20358;-70
2021/04/14 09:39:45;;;;;;;19.38;6.95;;;;;;;6.52;50.47;101705.09;4994613;28;20070;-75
2021/04/14 09:42:26;;;;;;;12.90;6.28;;;;;;;6.47;50.06;101707.84;4995626;28;20047;-68
2021/04/14 09:44:55;;;;;;;13.40;6.05;;;;;;;6.47;51.16;101710.50;4995586;28;20049;-72
2021/04/14 09:47:28;;;;;;;11.43;5.80;;;;;;;6.37;51.95;101709.78;4995318;28;20496;-71
2021/04/14 09:49:58;;;;;;;14.45;7.00;;;;;;;6.26;51.30;101687.88;5010905;28;20061;-70
2021/04/14 09:52:31;;;;;;;12.60;6.38;;;;;;;6.29;51.72;101685.19;4995654;28;20058;-72
2021/04/14 09:55:13;;;;;;;13.75;7.47;;;;;;;6.46;52.68;101698.16;4995930;28;20050;-73
2021/04/14 09:57:43;;;;;;;11.35;6.70;;;;;;;6.55;54.17;101704.16;5010567;28;20454;-70
2021/04/14 10:00:18;;;;;;;12.82;7.13;;;;;;;6.61;54.84;101696.97;4995948;28;20078;-70
2021/04/14 10:02:51;;;;;;;20.85;7.95;;;;;;;6.68;53.82;101691.53;4995531;28;20051;-70
2021/04/14 10:05:18;;;;;;;15.15;7.47;;;;;;;6.78;52.93;101701.94;5018376;28;20112;-72
2021/04/14 10:07:46;;;;;;;12.68;7.18;;;;;;;6.75;51.80;101679.91;5015097;28;20340;-72
2021/04/14 10:10:23;;;;;;;16.52;7.22;;;;;;;7.01;49.63;101691.75;5014948;28;20352;-69
2021/04/14 10:12:52;;;;;;;12.43;7.03;;;;;;;7.26;47.96;101685.91;5016541;28;20044;-71
2021/04/14 10:15:34;;;;;;;12.75;7.13;;;;;;;7.50;45.41;101664.97;5014229;28;20083;-73
2021/04/14 10:18:02;;;;;;;15.20;7.35;;;;;;;7.85;45.56;101679.22;5013869;28;20424;-73
2021/04/14 10:20:32;;;;;;;15.60;7.63;;;;;;;7.97;44.70;101670.91;5017437;28;20052;-74
2021/04/14 10:22:59;;;;;;;13.20;7.05;;;;;;;8.08;44.07;101667.09;5016135;28;20522;-71
2021/04/14 10:25:30;;;;;;;14.20;6.68;;;;;;;8.02;43.93;101676.97;5017879;28;20058;-69
2021/04/14 10:28:22;;;;;;;10.90;7.40;;;;;;;8.06;41.59;101675.09;5017877;28;20132;-74
2021/04/14 10:31:00;;;;;;;12.10;7.97;;;;;;;8.15;44.32;101666.91;5016224;28;20054;-70
2021/04/14 10:33:27;;;;;;;11.05;6.85;;;;;;;8.40;41.31;101671.53;5017684;28;20050;-71
2021/04/14 10:35:53;;;;;;;12.07;6.70;;;;;;;8.19;40.12;101673.00;5017963;28;20454;-72
2021/04/14 10:38:34;;;;;;;13.98;7.72;;;;;;;8.21;42.64;101668.50;5016261;28;20061;-73
2021/04/14 10:41:00;;;;;;;;;;;;;;;8.65;41.56;101673.56;5018400;28;20054;-71
2021/04/14 10:43:28;;;;;;;13.15;7.72;;;;;;;8.96;41.23;101662.00;5017270;28;20533;-70
2021/04/14 10:46:06;;;;;;;14.85;7.70;;;;;;;8.97;38.64;101668.19;5020659;28;20109;-71
2021/04/14 10:48:38;;;;;;;12.95;6.85;;;;;;;9.08;37.95;101662.53;5021480;28;20065;-69
2021/04/14 10:51:32;;;;;;;13.60;6.40;;;;;;;9.20;38.18;101651.50;5019070;28;20061;-72
2021/04/14 10:54:00;;;;;;;11.23;6.97;;;;;;;9.28;39.10;101640.63;5019251;28;20057;-71
2021/04/14 10:56:29;;;;;;;11.40;6.38;;;;;;;9.69;38.83;101637.50;5017322;28;20050;-69
2021/04/14 10:58:57;;;;;;;11.45;6.95;;;;;;;9.67;37.32;101636.69;5018409;28;20057;-73
2021/04/14 11:01:40;;;;;;;15.32;7.63;;;;;;;9.69;38.88;101656.19;5018371;28;20469;-74
2021/04/14 11:04:15;;;;;;;12.98;7.40;;;;;;;9.85;38.35;101642.31;5017722;28;20128;-70
2021/04/14 11:06:44;;;;;;;18.75;7.40;;;;;;;9.86;40.69;101636.94;5017357;28;20050;-71
2021/04/14 11:09:16;;;;;;;11.55;6.85;;;;;;;9.79;38.54;101632.75;5015661;28;20423;-71
2021/04/14 11:11:43;;;;;;;11.60;6.38;;;;;;;10.01;35.02;101624.88;5017802;28;20057;-71
2021/04/14 11:14:13;;;;;;;13.35;7.15;;;;;;;9.94;33.99;101609.13;5020025;28;20053;-71
2021/04/14 11:16:45;;;;;;;11.38;6.53;;;;;;;10.36;34.98;101624.56;5017268;28;20061;-70
2021/04/14 11:19:21;;;;;;;11.13;6.78;;;;;;;10.66;35.19;101621.69;5020356;28;20049;-70
2021/04/14 11:22:01;;;;;;;15.75;7.05;;;;;;;10.41;31.63;101611.03;5016612;28;20120;-70
2021/04/14 11:24:27;;;;;;;12.75;7.50;;;;;;;10.23;33.37;101612.59;5015639;28;20054;-70
2021/04/14 11:26:58;;;;;;;11.77;6.72;;;;;;;10.19;35.42;101618.00;5011034;28;20052;-70
2021/04/14 11:29:31;;;;;;;12.10;6.53;;;;;;;9.89;34.99;101618.19;5017503;28;20052;-70
2021/04/14 11:32:16;;;;;;;14.45;6.65;;;;;;;9.60;36.08;101617.34;5032168;28;20050;-70
2021/04/14 11:35:05;;;;;;;12.88;7.03;;;;;;;9.14;37.90;101626.88;5031554;28;20049;-70
2021/04/14 11:37:37;;;;;;;11.45;6.97;;;;;;;8.91;36.95;101624.00;5016788;28;20112;-72
2021/04/14 11:40:08;;;;;;;9.73;6.70;;;;;;;8.95;37.15;101622.97;5017039;28;20058;-70
2021/04/14 11:43:01;;;;;;;;;;;;;;;9.42;36.06;101624.19;5014632;28;20041;-71
2021/04/14 11:45:39;;;;;;;9.10;6.03;;;;;;;10.08;35.65;101620.19;5035878;28;19922;-70